createdAt,value
2018-07-13T00:00:02.667Z,101106.19
2018-07-13T00:02:31.318Z,101117.30
2018-07-13T00:05:00.050Z,101115.95
2018-07-13T00:07:29.008Z,101113.55
2018-07-13T00:09:58.030Z,101121.66
2018-07-13T00:12:27.070Z,101128.41
2018-07-13T00:15:07.578Z,101120.52
2018-07-13T00:17:36.645Z,101113.70
2018-07-13T00:20:05.918Z,101114.75
2018-07-13T00:22:34.632Z,101108.73
2018-07-13T00:25:03.358Z,101104.15
2018-07-13T00:27:32.034Z,101105.20
2018-07-13T00:30:00.692Z,101104.36
2018-07-13T00:32:29.582Z,101101.05
2018-07-13T00:34:59.036Z,101103.75
2018-07-13T00:37:28.288Z,101110.23
2018-07-13T00:39:57.765Z,101114.55
2018-07-13T00:42:26.403Z,101111.58
2018-07-13T00:44:55.696Z,101110.44
2018-07-13T00:47:24.586Z,101110.23
2018-07-13T00:49:53.584Z,101113.97
2018-07-13T00:52:22.261Z,101113.35
2018-07-13T00:54:51.032Z,101115.44
2018-07-13T00:57:21.495Z,101116.47
2018-07-13T00:59:50.521Z,101120.00
2018-07-13T01:02:19.430Z,101112.73
2018-07-13T01:04:48.536Z,101112.98
2018-07-13T01:07:17.199Z,101116.62
2018-07-13T01:09:46.446Z,101127.33
2018-07-13T01:12:15.195Z,101126.74
2018-07-13T01:14:43.903Z,101126.44
2018-07-13T01:17:12.560Z,101130.69
2018-07-13T01:19:41.430Z,101119.47
2018-07-13T01:22:10.066Z,101131.63
2018-07-13T01:24:39.060Z,101122.59
2018-07-13T01:27:07.714Z,101123.94
2018-07-13T01:29:36.769Z,101138.17
2018-07-13T01:32:05.445Z,101127.52
2018-07-13T01:34:34.429Z,101123.16
2018-07-13T01:37:03.021Z,101129.91
2018-07-13T01:39:31.677Z,101121.19
2018-07-13T01:42:00.400Z,101124.63
2018-07-13T01:44:29.705Z,101123.83
2018-07-13T01:46:58.424Z,101127.56
2018-07-13T01:49:27.721Z,101122.69
2018-07-13T01:51:56.839Z,101120.72
2018-07-13T01:54:25.914Z,101121.37
2018-07-13T01:56:54.532Z,101128.34
2018-07-13T01:59:23.480Z,101130.03
2018-07-13T02:01:52.382Z,101134.33
2018-07-13T02:04:21.333Z,101132.15
2018-07-13T02:06:49.979Z,101123.22
2018-07-13T02:09:18.690Z,101128.83
2018-07-13T02:11:47.316Z,101128.20
2018-07-13T02:14:16.450Z,101135.09
2018-07-13T02:16:45.081Z,101131.73
2018-07-13T02:19:14.713Z,101135.47
2018-07-13T02:21:45.284Z,101127.59
2018-07-13T02:24:14.789Z,101128.73
2018-07-13T02:26:44.629Z,101123.12
2018-07-13T02:29:14.266Z,101124.30
2018-07-13T02:31:42.881Z,101123.55
2018-07-13T02:34:11.569Z,101118.48
2018-07-13T02:36:40.545Z,101128.06
2018-07-13T02:39:10.217Z,101139.72
2018-07-13T02:41:39.397Z,101133.20
2018-07-13T02:44:08.361Z,101135.28
2018-07-13T02:46:37.014Z,101133.10
2018-07-13T02:49:06.522Z,101136.22
2018-07-13T02:51:35.184Z,101138.67
2018-07-13T02:54:03.901Z,101133.52
2018-07-13T02:56:32.527Z,101132.89
2018-07-13T02:59:01.148Z,101144.41
2018-07-13T03:01:30.142Z,101150.22
2018-07-13T03:03:59.069Z,101149.20
2018-07-13T03:06:27.713Z,101157.60
2018-07-13T03:08:56.779Z,101157.60
2018-07-13T03:11:25.413Z,101154.80
2018-07-13T03:13:54.073Z,101159.16
2018-07-13T03:16:22.707Z,101165.90
2018-07-13T03:18:51.681Z,101169.65
2018-07-13T03:21:20.311Z,101169.14
2018-07-13T03:23:49.043Z,101174.43
2018-07-13T03:26:17.765Z,101170.70
2018-07-13T03:28:46.403Z,101168.63
2018-07-13T03:31:15.409Z,101165.10
2018-07-13T03:33:44.054Z,101169.03
2018-07-13T03:36:12.666Z,101170.38
2018-07-13T03:38:41.670Z,101169.56
2018-07-13T03:41:10.383Z,101179.13
2018-07-13T03:43:39.415Z,101179.44
2018-07-13T03:46:08.781Z,101183.36
2018-07-13T03:48:37.416Z,101183.36
2018-07-13T03:51:06.321Z,101176.30
2018-07-13T03:53:34.986Z,101176.42
2018-07-13T03:56:04.238Z,101174.86
2018-07-13T03:58:33.234Z,101183.27
2018-07-13T04:01:02.260Z,101178.72
2018-07-13T04:03:30.909Z,101178.30
2018-07-13T04:06:00.343Z,101179.25
2018-07-13T04:08:29.028Z,101177.15
2018-07-13T04:10:58.109Z,101179.23
2018-07-13T04:13:26.741Z,101177.66
2018-07-13T04:15:55.710Z,101189.37
2018-07-13T04:18:25.438Z,101185.02
2018-07-13T04:20:54.895Z,101187.31
2018-07-13T04:23:25.169Z,101191.45
2018-07-13T04:25:54.189Z,101195.61
2018-07-13T04:28:23.359Z,101193.55
2018-07-13T04:30:52.318Z,101197.28
2018-07-13T04:33:21.278Z,101195.61
2018-07-13T04:35:49.909Z,101196.02
2018-07-13T04:38:18.602Z,101197.48
2018-07-13T04:40:47.277Z,101194.14
2018-07-13T04:43:16.429Z,101197.47
2018-07-13T04:45:45.557Z,101200.80
2018-07-13T04:48:14.296Z,101200.16
2018-07-13T04:50:43.065Z,101202.63
2018-07-13T04:53:11.732Z,101200.64
2018-07-13T04:55:41.025Z,101200.75
2018-07-13T04:58:09.772Z,101202.52
2018-07-13T05:00:39.901Z,101206.03
2018-07-13T05:03:09.939Z,101208.27
2018-07-13T05:05:39.376Z,101209.19
2018-07-13T05:08:14.560Z,101212.00
2018-07-13T05:10:43.215Z,101215.81
2018-07-13T05:13:11.971Z,101214.84
2018-07-13T05:15:40.662Z,101213.47
2018-07-13T05:18:09.754Z,101213.36
2018-07-13T05:20:38.451Z,101214.20
2018-07-13T05:23:08.051Z,101218.97
2018-07-13T05:25:36.896Z,101217.83
2018-07-13T05:28:06.368Z,101224.48
2018-07-13T05:30:35.429Z,101217.28
2018-07-13T05:33:04.216Z,101213.20
2018-07-13T05:35:33.371Z,101219.91
2018-07-13T05:38:02.178Z,101224.17
2018-07-13T05:40:30.867Z,101223.72
2018-07-13T05:42:59.586Z,101224.23
2018-07-13T05:45:28.262Z,101229.80
2018-07-13T05:47:57.066Z,101228.77
2018-07-13T05:50:25.749Z,101227.75
2018-07-13T05:52:54.422Z,101230.03
2018-07-13T05:55:23.255Z,101232.52
2018-07-13T05:57:52.003Z,101231.52
2018-07-13T06:00:21.085Z,101235.94
2018-07-13T06:02:50.136Z,101237.72
2018-07-13T06:05:19.443Z,101236.92
2018-07-13T06:07:48.367Z,101251.78
2018-07-13T06:10:17.337Z,101244.83
2018-07-13T06:12:47.456Z,101245.72
2018-07-13T06:15:16.097Z,101253.12
2018-07-13T06:17:45.025Z,101249.57
2018-07-13T06:20:13.827Z,101252.67
2018-07-13T06:22:42.822Z,101254.75
2018-07-13T06:25:12.533Z,101258.19
2018-07-13T06:27:41.342Z,101260.89
2018-07-13T06:30:10.353Z,101257.20
2018-07-13T06:32:39.765Z,101262.30
2018-07-13T06:35:08.514Z,101265.46
2018-07-13T06:37:38.514Z,101259.95
2018-07-13T06:40:07.261Z,101259.47
2018-07-13T06:42:35.912Z,101261.34
2018-07-13T06:45:05.010Z,101266.84
2018-07-13T06:47:33.984Z,101266.11
2018-07-13T06:50:02.665Z,101270.78
2018-07-13T06:52:31.377Z,101267.09
2018-07-13T06:55:00.026Z,101271.48
2018-07-13T06:57:39.866Z,101268.49
2018-07-13T07:01:12.629Z,101268.27
2018-07-13T07:04:51.005Z,101276.53
2018-07-13T07:07:22.981Z,101280.38
2018-07-13T07:09:55.318Z,101274.62
2018-07-13T07:12:47.088Z,101278.29
2018-07-13T07:15:15.965Z,101285.16
2018-07-13T07:17:44.702Z,101291.79
2018-07-13T07:20:14.329Z,101297.21
2018-07-13T07:22:43.261Z,101304.90
2018-07-13T07:25:11.894Z,101297.73
2018-07-13T07:27:40.531Z,101299.01
2018-07-13T07:30:09.263Z,101295.28
2018-07-13T07:32:37.977Z,101292.98
2018-07-13T07:35:06.979Z,101306.83
2018-07-13T07:37:35.955Z,101300.14
2018-07-13T07:40:04.930Z,101302.94
2018-07-13T07:42:34.012Z,101300.50
2018-07-13T07:45:03.139Z,101298.40
2018-07-13T07:47:32.074Z,101303.20
2018-07-13T07:50:00.721Z,101306.25
2018-07-13T07:52:29.759Z,101303.98
2018-07-13T07:54:58.489Z,101304.67
2018-07-13T07:57:27.226Z,101308.52
2018-07-13T07:59:55.895Z,101311.73
2018-07-13T08:02:24.539Z,101318.36
2018-07-13T08:04:53.185Z,101315.12
2018-07-13T08:07:22.016Z,101320.82
2018-07-13T08:09:50.663Z,101314.64
2018-07-13T08:12:19.901Z,101309.33
2018-07-13T08:14:48.808Z,101309.95
2018-07-13T08:17:17.499Z,101314.53
2018-07-13T08:19:46.386Z,101310.84
2018-07-13T08:22:17.779Z,101318.55
2018-07-13T08:24:47.170Z,101319.47
2018-07-13T08:27:19.271Z,101319.84
2018-07-13T08:29:48.474Z,101323.78
2018-07-13T08:32:17.405Z,101328.95
2018-07-13T08:34:46.565Z,101326.73
2018-07-13T08:37:15.959Z,101322.95
2018-07-13T08:39:44.823Z,101320.50
2018-07-13T08:42:13.794Z,101322.77
2018-07-13T08:44:42.482Z,101330.52
2018-07-13T08:47:11.409Z,101330.73
2018-07-13T08:49:40.428Z,101322.55
2018-07-13T08:52:09.486Z,101329.69
2018-07-13T08:54:38.197Z,101321.19
2018-07-13T08:57:06.920Z,101322.72
2018-07-13T08:59:35.699Z,101324.20
2018-07-13T09:02:04.403Z,101329.48
2018-07-13T09:04:33.791Z,101329.27
2018-07-13T09:07:02.768Z,101327.02
2018-07-13T09:09:31.781Z,101336.02
2018-07-13T09:12:00.436Z,101336.03
2018-07-13T09:14:29.130Z,101352.52
2018-07-13T09:16:57.823Z,101354.63
2018-07-13T09:19:26.491Z,101351.70
2018-07-13T09:21:55.520Z,101360.58
2018-07-13T09:24:24.210Z,101356.73
2018-07-13T09:26:53.192Z,101355.45
2018-07-13T09:29:22.127Z,101352.22
2018-07-13T09:31:50.850Z,101364.34
2018-07-13T09:34:19.871Z,101361.19
2018-07-13T09:36:48.758Z,101349.74
2018-07-13T09:39:17.595Z,101352.89
2018-07-13T09:41:46.615Z,101349.73
2018-07-13T09:44:15.317Z,101355.77
2018-07-13T09:46:44.394Z,101353.80
2018-07-13T09:49:12.980Z,101347.10
2018-07-13T09:51:41.706Z,101346.69
2018-07-13T09:54:10.437Z,101348.69
2018-07-13T09:56:39.382Z,101348.78
2018-07-13T09:59:08.391Z,101353.17
2018-07-13T10:01:37.150Z,101349.22
2018-07-13T10:04:06.009Z,101340.23
2018-07-13T10:06:34.776Z,101346.08
2018-07-13T10:09:03.668Z,101342.53
2018-07-13T10:11:33.347Z,101339.93
2018-07-13T10:14:02.401Z,101345.73
2018-07-13T10:16:31.091Z,101343.42
2018-07-13T10:18:59.851Z,101344.36
2018-07-13T10:21:29.412Z,101346.59
2018-07-13T10:23:58.176Z,101344.31
2018-07-13T10:26:37.381Z,101344.05
2018-07-13T10:29:09.732Z,101344.05
2018-07-13T10:31:38.495Z,101341.80
2018-07-13T10:34:07.927Z,101342.71
2018-07-13T10:36:40.170Z,101347.48
2018-07-13T10:39:09.748Z,101343.64
2018-07-13T10:41:45.135Z,101347.91
2018-07-13T10:44:14.942Z,101340.66
2018-07-13T10:46:43.715Z,101341.71
2018-07-13T10:49:12.733Z,101337.67
2018-07-13T10:51:41.742Z,101335.45
2018-07-13T10:54:10.832Z,101338.33
2018-07-13T10:56:41.045Z,101343.70
2018-07-13T10:59:10.142Z,101327.17
2018-07-13T11:01:39.056Z,101339.45
2018-07-13T11:04:07.842Z,101338.10
2018-07-13T11:06:37.161Z,101332.31
2018-07-13T11:09:07.140Z,101333.01
2018-07-13T11:11:36.461Z,101328.77
2018-07-13T11:14:05.248Z,101323.53
2018-07-13T11:16:34.112Z,101327.28
2018-07-13T11:19:02.752Z,101323.27
2018-07-13T11:21:31.810Z,101316.33
2018-07-13T11:24:00.465Z,101314.23
2018-07-13T11:26:29.145Z,101313.54
2018-07-13T11:28:57.778Z,101312.13
2018-07-13T11:31:26.521Z,101305.24
2018-07-13T11:33:55.146Z,101306.83
2018-07-13T11:36:23.763Z,101307.52
2018-07-13T11:38:52.834Z,101302.72
2018-07-13T11:41:22.131Z,101300.06
2018-07-13T11:43:50.925Z,101296.99
2018-07-13T11:46:19.919Z,101293.86
2018-07-13T11:48:48.804Z,101297.45
2018-07-13T11:51:17.496Z,101295.09
2018-07-13T11:53:46.415Z,101295.38
2018-07-13T11:56:15.371Z,101289.75
2018-07-13T11:58:44.006Z,101289.36
2018-07-13T12:01:12.644Z,101285.81
2018-07-13T12:03:41.740Z,101277.57
2018-07-13T12:06:11.048Z,101273.41
2018-07-13T12:08:40.010Z,101273.17
2018-07-13T12:11:08.670Z,101275.09
2018-07-13T12:13:37.443Z,101277.11
2018-07-13T12:16:06.963Z,101272.55
2018-07-13T12:18:36.015Z,101275.44
2018-07-13T12:21:04.674Z,101277.16
2018-07-13T12:23:33.366Z,101275.01
2018-07-13T12:26:02.277Z,101275.34
2018-07-13T12:28:30.940Z,101270.44
2018-07-13T12:30:59.650Z,101269.73
2018-07-13T12:33:28.691Z,101269.58
2018-07-13T12:35:57.348Z,101265.02
2018-07-13T12:38:26.449Z,101268.81
2018-07-13T12:40:55.136Z,101265.32
2018-07-13T12:43:23.825Z,101265.45
2018-07-13T12:45:52.847Z,101252.31
2018-07-13T12:48:21.500Z,101250.27
2018-07-13T12:50:50.425Z,101253.78
2018-07-13T12:53:19.779Z,101252.38
2018-07-13T12:55:48.447Z,101249.44
2018-07-13T12:58:17.665Z,101243.56
2018-07-13T13:00:46.566Z,101242.39
2018-07-13T13:03:15.279Z,101241.00
2018-07-13T13:05:44.300Z,101236.11
2018-07-13T13:08:12.971Z,101235.85
2018-07-13T13:10:41.945Z,101237.55
2018-07-13T13:13:10.990Z,101240.66
2018-07-13T13:15:40.203Z,101240.87
2018-07-13T13:18:09.171Z,101238.32
2018-07-13T13:20:37.880Z,101238.30
2018-07-13T13:23:07.559Z,101233.73
2018-07-13T13:25:36.539Z,101234.91
2018-07-13T13:28:08.866Z,101232.22
2018-07-13T13:30:37.448Z,101231.28
2018-07-13T13:33:06.917Z,101237.42
2018-07-13T13:35:35.588Z,101232.88
2018-07-13T13:38:04.303Z,101230.07
2018-07-13T13:40:32.957Z,101224.08
2018-07-13T13:43:01.634Z,101226.41
2018-07-13T13:45:30.685Z,101235.19
2018-07-13T13:47:59.350Z,101232.90
2018-07-13T13:50:28.289Z,101229.91
2018-07-13T13:52:56.984Z,101226.08
2018-07-13T13:55:25.626Z,101226.47
2018-07-13T13:57:54.964Z,101227.28
2018-07-13T14:00:24.261Z,101219.38
2018-07-13T14:02:53.304Z,101222.58
2018-07-13T14:05:22.336Z,101210.34
2018-07-13T14:07:50.999Z,101211.67
2018-07-13T14:10:19.793Z,101219.16
2018-07-13T14:12:49.058Z,101220.81
2018-07-13T14:15:17.726Z,101208.97
2018-07-13T14:17:47.019Z,101211.63
2018-07-13T14:20:15.739Z,101206.76
2018-07-13T14:22:44.380Z,101210.29
2018-07-13T14:25:13.066Z,101212.52
2018-07-13T14:27:41.881Z,101206.81
2018-07-13T14:30:11.052Z,101199.19
2018-07-13T14:32:39.710Z,101209.65
2018-07-13T14:35:08.908Z,101199.34
2018-07-13T14:37:37.851Z,101201.67
2018-07-13T14:40:06.739Z,101197.40
2018-07-13T14:42:35.768Z,101189.04
2018-07-13T14:45:04.518Z,101194.69
2018-07-13T14:47:33.153Z,101188.05
2018-07-13T14:50:02.410Z,101188.03
2018-07-13T14:52:31.065Z,101189.03
2018-07-13T14:55:00.020Z,101190.63
2018-07-13T14:57:28.675Z,101179.33
2018-07-13T14:59:57.381Z,101191.95
2018-07-13T15:02:26.350Z,101175.85
2018-07-13T15:04:55.047Z,101168.65
2018-07-13T15:07:24.945Z,101167.27
2018-07-13T15:09:54.358Z,101168.42
2018-07-13T15:12:23.172Z,101173.92
2018-07-13T15:14:52.698Z,101166.77
2018-07-13T15:17:21.624Z,101166.56
2018-07-13T15:19:50.360Z,101162.06
2018-07-13T15:22:19.000Z,101164.05
2018-07-13T15:24:48.492Z,101164.98
2018-07-13T15:27:17.187Z,101171.42
2018-07-13T15:29:45.898Z,101170.43
2018-07-13T15:32:14.743Z,101170.75
2018-07-13T15:34:43.967Z,101173.33
2018-07-13T15:37:13.240Z,101172.20
2018-07-13T15:39:41.951Z,101176.93
2018-07-13T15:42:11.709Z,101171.17
2018-07-13T15:44:40.383Z,101171.55
2018-07-13T15:47:09.126Z,101165.77
2018-07-13T15:49:38.602Z,101172.66
2018-07-13T15:52:07.362Z,101165.28
2018-07-13T15:54:36.108Z,101164.45
2018-07-13T15:57:06.415Z,101169.13
2018-07-13T15:59:35.679Z,101168.32
2018-07-13T16:02:05.000Z,101169.67
2018-07-13T16:04:34.085Z,101167.44
2018-07-13T16:07:03.948Z,101184.75
2018-07-13T16:09:34.430Z,101185.86
2018-07-13T16:12:04.117Z,101185.57
2018-07-13T16:14:33.941Z,101193.80
2018-07-13T16:17:03.792Z,101186.38
2018-07-13T16:19:33.586Z,101182.48
2018-07-13T16:22:03.544Z,101176.70
2018-07-13T16:24:32.773Z,101177.25
2018-07-13T16:27:01.433Z,101180.48
2018-07-13T16:29:30.351Z,101178.53
2018-07-13T16:31:59.254Z,101175.97
2018-07-13T16:34:28.285Z,101163.90
2018-07-13T16:36:57.002Z,101165.47
2018-07-13T16:39:26.543Z,101155.47
2018-07-13T16:41:55.283Z,101162.19
2018-07-13T16:44:24.299Z,101175.64
2018-07-13T16:46:53.046Z,101184.65
2018-07-13T16:49:21.811Z,101185.76
2018-07-13T16:51:51.327Z,101182.23
2018-07-13T16:54:20.629Z,101187.69
2018-07-13T16:56:49.674Z,101202.16
2018-07-13T16:59:18.323Z,101199.41
2018-07-13T17:01:47.055Z,101196.36
2018-07-13T17:04:15.715Z,101198.78
2018-07-13T17:06:44.671Z,101205.26
2018-07-13T17:09:13.341Z,101204.40
2018-07-13T17:11:42.797Z,101205.45
2018-07-13T17:14:11.502Z,101206.75
2018-07-13T17:16:40.141Z,101212.70
2018-07-13T17:19:09.282Z,101221.39
2018-07-13T17:21:37.949Z,101219.17
2018-07-13T17:24:06.888Z,101221.00
2018-07-13T17:26:35.598Z,101224.55
2018-07-13T17:29:04.334Z,101226.13
2018-07-13T17:31:33.152Z,101231.00
2018-07-13T17:34:01.866Z,101230.14
2018-07-13T17:36:31.126Z,101235.30
2018-07-13T17:38:59.826Z,101242.94
2018-07-13T17:41:28.459Z,101246.42
2018-07-13T17:43:57.305Z,101247.45
2018-07-13T17:46:26.070Z,101252.08
2018-07-13T17:48:54.746Z,101243.85
2018-07-13T17:51:23.548Z,101245.14
2018-07-13T17:53:52.510Z,101239.69
2018-07-13T17:56:21.233Z,101241.86
2018-07-13T17:58:50.310Z,101240.70
2018-07-13T18:01:19.101Z,101246.94
2018-07-13T18:03:47.802Z,101246.61
2018-07-13T18:06:16.602Z,101245.77
2018-07-13T18:08:45.346Z,101244.61
2018-07-13T18:11:14.021Z,101244.52
2018-07-13T18:13:42.765Z,101246.06
2018-07-13T18:16:11.709Z,101247.08
2018-07-13T18:18:40.412Z,101245.66
2018-07-13T18:21:09.140Z,101250.47
2018-07-13T18:23:37.945Z,101249.80
2018-07-13T18:26:06.634Z,101254.90
2018-07-13T18:28:35.654Z,101265.97
2018-07-13T18:31:06.295Z,101271.91
2018-07-13T18:33:35.018Z,101271.06
2018-07-13T18:36:03.664Z,101274.27
2018-07-13T18:38:32.457Z,101276.11
2018-07-13T18:41:01.678Z,101283.43
2018-07-13T18:43:39.916Z,101279.83
2018-07-13T18:46:09.923Z,101291.02
2018-07-13T18:48:39.286Z,101286.93
2018-07-13T18:51:08.438Z,101293.79
2018-07-13T18:53:37.581Z,101292.72
2018-07-13T18:56:06.358Z,101297.89
2018-07-13T18:58:35.777Z,101295.17
2018-07-13T19:01:04.633Z,101298.94
2018-07-13T19:03:33.660Z,101296.97
2018-07-13T19:06:02.470Z,101304.26
2018-07-13T19:08:31.544Z,101308.34
2018-07-13T19:11:00.544Z,101307.76
2018-07-13T19:13:29.518Z,101310.98
2018-07-13T19:15:58.542Z,101310.11
2018-07-13T19:18:27.266Z,101321.75
2018-07-13T19:20:56.154Z,101318.97
2018-07-13T19:23:24.845Z,101321.91
2018-07-13T19:25:53.897Z,101316.70
2018-07-13T19:28:22.762Z,101326.47
2018-07-13T19:30:54.095Z,101332.13
2018-07-13T19:33:23.641Z,101325.80
2018-07-13T19:35:52.416Z,101322.66
2018-07-13T19:38:21.170Z,101320.12
2018-07-13T19:40:49.877Z,101317.62
2018-07-13T19:43:18.615Z,101317.23
2018-07-13T19:45:48.047Z,101311.98
2018-07-13T19:48:17.143Z,101316.56
2018-07-13T19:50:46.396Z,101319.75
2018-07-13T19:53:15.337Z,101316.95
2018-07-13T19:55:44.314Z,101319.08
2018-07-13T19:58:13.031Z,101319.02
2018-07-13T20:00:41.893Z,101316.83
2018-07-13T20:03:10.956Z,101313.39
2018-07-13T20:05:39.648Z,101316.03
2018-07-13T20:08:08.709Z,101313.06
2018-07-13T20:10:37.536Z,101303.23
2018-07-13T20:13:07.042Z,101309.39
2018-07-13T20:15:35.826Z,101314.19
2018-07-13T20:18:04.724Z,101314.42
2018-07-13T20:20:33.773Z,101317.47
2018-07-13T20:23:03.174Z,101317.17
2018-07-13T20:25:32.299Z,101316.41
2018-07-13T20:28:01.005Z,101322.74
2018-07-13T20:30:29.898Z,101321.16
2018-07-13T20:32:59.796Z,101325.89
2018-07-13T20:35:29.212Z,101333.77
2018-07-13T20:37:58.056Z,101329.40
2018-07-13T20:40:26.750Z,101332.02
2018-07-13T20:42:56.090Z,101334.69
2018-07-13T20:45:24.908Z,101331.41
2018-07-13T20:47:55.291Z,101339.35
2018-07-13T20:50:24.046Z,101333.02
2018-07-13T20:52:53.568Z,101333.52
2018-07-13T20:55:24.265Z,101334.98
2018-07-13T20:57:53.250Z,101336.28
2018-07-13T21:00:22.347Z,101337.98
2018-07-13T21:02:51.242Z,101336.16
2018-07-13T21:05:19.969Z,101334.97
2018-07-13T21:07:49.117Z,101342.81
2018-07-13T21:10:18.448Z,101344.47
2018-07-13T21:12:47.121Z,101345.48
2018-07-13T21:15:17.592Z,101345.86
2018-07-13T21:17:46.687Z,101340.51
2018-07-13T21:20:16.049Z,101353.36
2018-07-13T21:22:45.433Z,101348.69
2018-07-13T21:25:14.217Z,101348.77
2018-07-13T21:27:43.240Z,101350.47
2018-07-13T21:30:16.866Z,101351.97
2018-07-13T21:32:49.290Z,101353.97
2018-07-13T21:35:27.688Z,101346.05
2018-07-13T21:37:59.260Z,101349.83
2018-07-13T21:40:28.134Z,101352.80
2018-07-13T21:42:57.979Z,101352.65
2018-07-13T21:45:27.482Z,101348.99
2018-07-13T21:47:56.363Z,101349.70
2018-07-13T21:50:25.919Z,101353.77
2018-07-13T21:52:54.615Z,101353.77
2018-07-13T21:55:27.927Z,101361.73
2018-07-13T21:57:56.546Z,101356.79
2018-07-13T22:00:25.651Z,101366.06
2018-07-13T22:02:54.347Z,101358.91
2018-07-13T22:05:24.682Z,101357.73
2018-07-13T22:07:54.104Z,101361.50
2018-07-13T22:10:22.962Z,101357.58
2018-07-13T22:12:51.811Z,101357.58
2018-07-13T22:15:20.596Z,101364.36
2018-07-13T22:17:49.243Z,101362.47
2018-07-13T22:20:18.271Z,101359.53
2018-07-13T22:22:47.265Z,101362.25
2018-07-13T22:25:16.131Z,101366.55
2018-07-13T22:27:44.930Z,101367.59
2018-07-13T22:30:13.608Z,101367.30
2018-07-13T22:32:42.375Z,101360.24
2018-07-13T22:35:11.316Z,101363.63
2018-07-13T22:37:40.422Z,101360.61
2018-07-13T22:40:09.609Z,101363.93
2018-07-13T22:42:38.656Z,101368.00
2018-07-13T22:45:07.410Z,101360.91
2018-07-13T22:47:36.261Z,101361.22
2018-07-13T22:50:05.252Z,101359.56
2018-07-13T22:52:34.007Z,101357.62
2018-07-13T22:55:02.772Z,101358.91
2018-07-13T22:57:32.309Z,101359.36
2018-07-13T23:00:01.422Z,101353.62
2018-07-13T23:02:30.029Z,101356.52
2018-07-13T23:04:59.255Z,101363.39
2018-07-13T23:07:28.532Z,101364.14
2018-07-13T23:09:57.294Z,101364.14
2018-07-13T23:12:26.336Z,101358.94
2018-07-13T23:14:55.026Z,101360.25
2018-07-13T23:17:23.954Z,101357.03
2018-07-13T23:19:52.716Z,101359.83
2018-07-13T23:22:21.726Z,101368.93
2018-07-13T23:24:50.515Z,101357.42
2018-07-13T23:27:19.142Z,101362.24
2018-07-13T23:29:47.780Z,101353.28
2018-07-13T23:32:16.759Z,101354.33
2018-07-13T23:34:45.535Z,101357.73
2018-07-13T23:37:14.264Z,101354.72
2018-07-13T23:39:43.154Z,101359.39
2018-07-13T23:42:11.813Z,101358.09
2018-07-13T23:44:40.474Z,101363.30
2018-07-13T23:47:09.390Z,101362.77
2018-07-13T23:49:38.311Z,101365.39
2018-07-13T23:52:07.079Z,101358.01
2018-07-13T23:54:36.106Z,101367.41
2018-07-13T23:57:04.871Z,101371.42
2018-07-13T23:59:33.598Z,101369.61
